createdAt,value
2023-08-14T00:01:54.865Z,100163.98
2023-08-14T00:04:40.990Z,100163.00
2023-08-14T00:07:27.224Z,100161.10
2023-08-14T00:10:13.551Z,100162.02
2023-08-14T00:13:00.028Z,100162.72
2023-08-14T00:15:46.023Z,100163.50
2023-08-14T00:18:32.429Z,100159.83
2023-08-14T00:21:18.576Z,100160.34
2023-08-14T00:24:05.013Z,100161.27
2023-08-14T00:26:51.180Z,100157.52
2023-08-14T00:29:37.345Z,100159.48
2023-08-14T00:32:23.609Z,100165.23
2023-08-14T00:35:10.006Z,100163.28
2023-08-14T00:37:56.249Z,100167.40
2023-08-14T00:40:43.404Z,100168.59
2023-08-14T00:43:29.654Z,100167.59
2023-08-14T00:46:16.127Z,100173.62
2023-08-14T00:49:02.915Z,100179.64
2023-08-14T00:51:49.700Z,100175.14
2023-08-14T00:54:35.870Z,100175.61
2023-08-14T00:57:21.893Z,100170.60
2023-08-14T01:00:10.169Z,100174.44
2023-08-14T01:02:56.823Z,100175.02
2023-08-14T01:05:43.287Z,100168.29
2023-08-14T01:08:30.358Z,100168.46
2023-08-14T01:11:30.605Z,100167.84
2023-08-14T01:14:32.291Z,100166.92
2023-08-14T01:17:22.583Z,100168.86
2023-08-14T01:20:10.877Z,100167.64
2023-08-14T01:23:18.007Z,100168.80
2023-08-14T01:26:04.609Z,100171.25
2023-08-14T01:28:51.751Z,100170.98
2023-08-14T01:31:37.914Z,100177.39
2023-08-14T01:34:24.846Z,100180.12
2023-08-14T01:37:17.423Z,100181.98
2023-08-14T01:40:17.893Z,100183.36
2023-08-14T01:43:10.602Z,100189.57
2023-08-14T01:45:58.888Z,100187.43
2023-08-14T01:48:48.490Z,100186.59
2023-08-14T01:51:34.877Z,100187.48
2023-08-14T01:54:21.083Z,100187.86
2023-08-14T01:57:08.602Z,100191.71
2023-08-14T01:59:55.188Z,100195.71
2023-08-14T02:02:41.280Z,100191.23
2023-08-14T02:05:27.484Z,100188.48
2023-08-14T02:08:13.709Z,100186.23
2023-08-14T02:11:09.894Z,100188.87
2023-08-14T02:13:56.855Z,100191.88
2023-08-14T02:16:43.148Z,100193.73
2023-08-14T02:19:29.252Z,100191.10
2023-08-14T02:22:15.930Z,100186.21
2023-08-14T02:25:02.965Z,100188.88
2023-08-14T02:27:49.370Z,100191.91
2023-08-14T02:30:37.772Z,100197.50
2023-08-14T02:33:24.875Z,100199.39
2023-08-14T02:36:10.722Z,100199.85
2023-08-14T02:38:56.965Z,100199.17
2023-08-14T02:41:43.460Z,100199.19
2023-08-14T02:44:30.669Z,100196.91
2023-08-14T02:47:18.219Z,100195.75
2023-08-14T02:50:04.814Z,100200.94
2023-08-14T02:52:51.255Z,100199.02
2023-08-14T02:55:37.432Z,100195.91
2023-08-14T02:58:23.932Z,100194.84
2023-08-14T03:01:10.345Z,100195.50
2023-08-14T03:03:56.860Z,100198.46
2023-08-14T03:06:42.918Z,100204.14
2023-08-14T03:09:29.205Z,100205.14
2023-08-14T03:12:16.023Z,100208.45
2023-08-14T03:15:02.945Z,100208.29
2023-08-14T03:17:49.110Z,100211.55
2023-08-14T03:20:35.418Z,100214.84
2023-08-14T03:23:21.609Z,100216.60
2023-08-14T03:26:07.591Z,100212.96
2023-08-14T03:28:53.706Z,100216.44
2023-08-14T03:31:40.240Z,100218.02
2023-08-14T03:34:26.833Z,100219.42
2023-08-14T03:37:14.533Z,100218.18
2023-08-14T03:40:00.749Z,100222.67
2023-08-14T03:42:48.660Z,100222.80
2023-08-14T03:45:34.988Z,100217.50
2023-08-14T03:48:20.919Z,100212.56
2023-08-14T03:51:07.255Z,100209.95
2023-08-14T03:53:53.402Z,100209.50
2023-08-14T03:56:40.166Z,100200.58
2023-08-14T03:59:27.295Z,100200.45
2023-08-14T04:02:14.557Z,100198.11
2023-08-14T04:05:02.362Z,100203.48
2023-08-14T04:07:49.177Z,100194.65
2023-08-14T04:10:37.502Z,100199.77
2023-08-14T04:13:26.997Z,100200.52
2023-08-14T04:16:13.603Z,100200.59
2023-08-14T04:19:00.018Z,100203.00
2023-08-14T04:21:46.924Z,100198.90
2023-08-14T04:24:32.970Z,100200.45
2023-08-14T04:27:19.729Z,100202.77
2023-08-14T04:30:06.694Z,100203.18
2023-08-14T04:32:53.185Z,100200.73
2023-08-14T04:35:41.495Z,100198.16
2023-08-14T04:38:28.043Z,100195.86
2023-08-14T04:41:14.441Z,100201.55
2023-08-14T04:44:00.862Z,100204.70
2023-08-14T04:46:58.128Z,100207.75
2023-08-14T04:49:47.615Z,100208.75
2023-08-14T04:52:33.699Z,100211.52
2023-08-14T04:55:20.025Z,100213.98
2023-08-14T04:58:06.625Z,100215.16
2023-08-14T05:00:54.518Z,100213.91
2023-08-14T05:03:41.219Z,100213.16
2023-08-14T05:06:27.378Z,100216.60
2023-08-14T05:09:25.685Z,100216.49
2023-08-14T05:12:13.463Z,100213.84
2023-08-14T05:14:59.727Z,100216.71
2023-08-14T05:17:47.043Z,100217.92
2023-08-14T05:20:35.222Z,100216.06
2023-08-14T05:23:21.968Z,100213.65
2023-08-14T05:26:08.213Z,100207.94
2023-08-14T05:28:54.403Z,100205.04
2023-08-14T05:31:40.842Z,100207.52
2023-08-14T05:34:27.284Z,100204.84
2023-08-14T05:37:13.258Z,100208.55
2023-08-14T05:39:59.518Z,100204.79
2023-08-14T05:43:13.774Z,100201.56
2023-08-14T05:46:00.099Z,100198.91
2023-08-14T05:48:46.688Z,100199.21
2023-08-14T05:51:33.202Z,100199.63
2023-08-14T05:54:21.430Z,100203.75
2023-08-14T05:57:07.631Z,100201.17
2023-08-14T05:59:56.729Z,100198.36
2023-08-14T06:02:42.638Z,100200.80
2023-08-14T06:05:29.180Z,100194.98
2023-08-14T06:08:15.738Z,100198.73
2023-08-14T06:11:03.566Z,100198.65
2023-08-14T06:13:49.704Z,100197.65
2023-08-14T06:16:36.194Z,100203.38
2023-08-14T06:19:22.749Z,100197.05
2023-08-14T06:22:09.163Z,100195.13
2023-08-14T06:24:55.878Z,100198.00
2023-08-14T06:27:42.346Z,100199.14
2023-08-14T06:30:30.516Z,100199.13
2023-08-14T06:33:16.904Z,100203.51
2023-08-14T06:36:03.503Z,100201.30
2023-08-14T06:38:50.102Z,100203.66
2023-08-14T06:41:37.220Z,100211.95
2023-08-14T06:44:24.370Z,100218.34
2023-08-14T06:47:10.745Z,100212.41
2023-08-14T06:49:56.752Z,100212.67
2023-08-14T06:52:42.735Z,100213.70
2023-08-14T06:55:28.924Z,100214.31
2023-08-14T06:58:15.557Z,100212.64
2023-08-14T07:01:01.714Z,100211.96
2023-08-14T07:03:48.511Z,100217.90
2023-08-14T07:06:35.143Z,100221.59
2023-08-14T07:09:21.696Z,100220.05
2023-08-14T07:12:07.928Z,100224.30
2023-08-14T07:14:54.320Z,100221.43
2023-08-14T07:17:40.679Z,100225.70
2023-08-14T07:20:27.337Z,100219.72
2023-08-14T07:23:16.714Z,100217.59
2023-08-14T07:26:12.025Z,100211.40
2023-08-14T07:28:58.147Z,100211.02
2023-08-14T07:31:44.335Z,100214.30
2023-08-14T07:34:30.710Z,100214.55
2023-08-14T07:37:17.114Z,100215.14
2023-08-14T07:40:07.000Z,100218.35
2023-08-14T07:42:53.250Z,100219.27
2023-08-14T07:45:39.340Z,100219.30
2023-08-14T07:48:25.741Z,100219.91
2023-08-14T07:51:11.840Z,100218.48
2023-08-14T07:53:57.886Z,100221.16
2023-08-14T07:56:46.538Z,100218.71
2023-08-14T07:59:33.756Z,100217.27
2023-08-14T08:02:20.604Z,100212.23
2023-08-14T08:05:08.076Z,100209.80
2023-08-14T08:07:54.362Z,100208.09
2023-08-14T08:10:40.667Z,100208.41
2023-08-14T08:13:27.822Z,100201.55
2023-08-14T08:16:13.892Z,100202.92
2023-08-14T08:19:00.388Z,100209.50
2023-08-14T08:21:47.799Z,100209.85
2023-08-14T08:24:33.983Z,100211.48
2023-08-14T08:27:20.151Z,100204.17
2023-08-14T08:30:07.112Z,100201.75
2023-08-14T08:32:53.281Z,100197.13
2023-08-14T08:35:39.787Z,100199.87
2023-08-14T08:38:26.116Z,100196.16
2023-08-14T08:41:31.618Z,100201.66
2023-08-14T08:44:26.897Z,100210.79
2023-08-14T08:47:16.120Z,100212.83
2023-08-14T08:50:04.154Z,100207.67
2023-08-14T08:52:52.149Z,100202.52
2023-08-14T08:55:38.552Z,100204.57
2023-08-14T08:58:26.383Z,100201.70
2023-08-14T09:01:13.822Z,100202.02
2023-08-14T09:04:04.358Z,100201.67
2023-08-14T09:06:50.696Z,100201.98
2023-08-14T09:09:37.068Z,100199.30
2023-08-14T09:12:23.428Z,100198.10
2023-08-14T09:15:10.400Z,100199.55
2023-08-14T09:17:56.486Z,100194.90
2023-08-14T09:20:43.024Z,100191.41
2023-08-14T09:23:33.126Z,100191.44
2023-08-14T09:26:20.506Z,100189.59
2023-08-14T09:29:06.640Z,100192.45
2023-08-14T09:31:53.094Z,100189.91
2023-08-14T09:34:39.489Z,100188.65
2023-08-14T09:37:26.325Z,100187.20
2023-08-14T09:40:16.239Z,100189.55
2023-08-14T09:43:02.732Z,100187.23
2023-08-14T09:45:49.109Z,100193.39
2023-08-14T09:48:48.045Z,100201.29
2023-08-14T09:51:34.746Z,100190.15
2023-08-14T09:54:32.323Z,100184.23
2023-08-14T09:57:22.263Z,100188.96
2023-08-14T10:00:12.960Z,100191.75
2023-08-14T10:03:03.726Z,100183.25
2023-08-14T10:05:50.935Z,100190.27
2023-08-14T10:08:39.208Z,100188.41
2023-08-14T10:11:28.274Z,100180.25
2023-08-14T10:14:18.264Z,100183.47
2023-08-14T10:17:10.107Z,100183.21
2023-08-14T10:19:59.793Z,100171.89
2023-08-14T10:22:47.000Z,100165.11
2023-08-14T10:25:38.837Z,100171.45
2023-08-14T10:28:25.727Z,100165.05
2023-08-14T10:31:13.138Z,100162.62
2023-08-14T10:34:00.442Z,100164.48
2023-08-14T10:36:52.837Z,100155.84
2023-08-14T10:39:39.224Z,100148.41
2023-08-14T10:42:25.788Z,100154.53
2023-08-14T10:45:16.308Z,100145.95
2023-08-14T10:48:09.785Z,100144.02
2023-08-14T10:51:00.375Z,100141.33
2023-08-14T10:53:46.774Z,100144.89
2023-08-14T10:56:52.487Z,100140.81
2023-08-14T10:59:41.531Z,100139.50
2023-08-14T11:02:29.972Z,100140.69
2023-08-14T11:05:17.271Z,100142.17
2023-08-14T11:08:06.471Z,100134.74
2023-08-14T11:10:53.026Z,100128.89
2023-08-14T11:13:39.471Z,100132.21
2023-08-14T11:16:25.876Z,100131.37
2023-08-14T11:19:13.435Z,100128.02
2023-08-14T11:21:59.787Z,100126.50
2023-08-14T11:24:47.227Z,100125.61
2023-08-14T11:27:33.749Z,100125.09
2023-08-14T11:30:26.223Z,100119.55
2023-08-14T11:33:12.956Z,100117.29
2023-08-14T11:36:04.161Z,100114.02
2023-08-14T11:38:57.954Z,100115.38
2023-08-14T11:41:44.108Z,100116.13
2023-08-14T11:44:30.317Z,100116.67
2023-08-14T11:47:17.864Z,100112.52
2023-08-14T11:50:05.222Z,100112.27
2023-08-14T11:52:52.179Z,100121.10
2023-08-14T11:55:38.710Z,100120.46
2023-08-14T11:58:24.825Z,100120.14
2023-08-14T12:01:11.291Z,100119.63
2023-08-14T12:03:57.824Z,100117.27
2023-08-14T12:06:44.327Z,100114.52
2023-08-14T12:09:31.222Z,100116.27
2023-08-14T12:12:18.756Z,100121.80
2023-08-14T12:15:06.305Z,100124.67
2023-08-14T12:17:53.567Z,100127.69
2023-08-14T12:20:40.068Z,100127.86
2023-08-14T12:23:26.425Z,100121.52
2023-08-14T12:26:12.983Z,100121.65
2023-08-14T12:28:59.410Z,100120.52
2023-08-14T12:31:47.547Z,100120.91
2023-08-14T12:34:34.190Z,100118.00
2023-08-14T12:37:21.373Z,100121.96
2023-08-14T12:40:09.827Z,100119.67
2023-08-14T12:42:56.120Z,100123.94
2023-08-14T12:45:42.847Z,100126.03
2023-08-14T12:48:29.724Z,100129.63
2023-08-14T12:51:15.737Z,100124.00
2023-08-14T12:54:02.461Z,100126.16
2023-08-14T12:56:48.832Z,100127.04
2023-08-14T12:59:34.776Z,100126.04
2023-08-14T13:05:10.482Z,100105.87
2023-08-14T13:07:56.721Z,100104.16
2023-08-14T13:10:42.880Z,100106.28
2023-08-14T13:13:30.055Z,100109.28
2023-08-14T13:16:17.336Z,100109.17
2023-08-14T13:19:03.793Z,100109.52
2023-08-14T13:21:50.055Z,100106.50
2023-08-14T13:24:35.928Z,100103.86
2023-08-14T13:27:22.641Z,100109.95
2023-08-14T13:30:13.302Z,100110.10
2023-08-14T13:33:06.159Z,100113.45
2023-08-14T13:35:52.866Z,100118.27
2023-08-14T13:38:39.725Z,100115.73
2023-08-14T13:41:26.649Z,100112.91
2023-08-14T13:44:13.338Z,100091.67
2023-08-14T13:47:02.438Z,100103.84
2023-08-14T13:49:49.947Z,100106.48
2023-08-14T13:52:36.057Z,100103.80
2023-08-14T13:55:22.376Z,100104.85
2023-08-14T13:58:11.421Z,100097.45
2023-08-14T14:00:58.004Z,100098.65
2023-08-14T14:03:44.361Z,100095.38
2023-08-14T14:06:30.399Z,100091.95
2023-08-14T14:09:17.055Z,100090.54
2023-08-14T14:12:03.888Z,100085.63
2023-08-14T14:14:50.075Z,100088.45
2023-08-14T14:17:36.512Z,100093.08
2023-08-14T14:20:24.235Z,100093.13
2023-08-14T14:23:11.077Z,100092.66
2023-08-14T14:25:57.505Z,100087.40
2023-08-14T14:28:43.816Z,100090.66
2023-08-14T14:31:32.414Z,100089.27
2023-08-14T14:34:19.466Z,100091.29
2023-08-14T14:37:05.989Z,100090.95
2023-08-14T14:39:52.738Z,100084.54
2023-08-14T14:42:39.237Z,100081.79
2023-08-14T14:45:34.542Z,100077.81
2023-08-14T14:48:21.762Z,100076.36
2023-08-14T14:51:08.129Z,100070.55
2023-08-14T14:53:54.822Z,100066.05
2023-08-14T14:56:41.051Z,100063.83
2023-08-14T14:59:27.231Z,100069.00
2023-08-14T15:02:27.618Z,100067.20
2023-08-14T15:05:27.813Z,100063.48
2023-08-14T15:08:15.329Z,100055.88
2023-08-14T15:11:01.761Z,100054.11
2023-08-14T15:13:47.853Z,100062.10
2023-08-14T15:16:33.869Z,100057.40
2023-08-14T15:19:20.366Z,100059.28
2023-08-14T15:22:07.177Z,100062.83
2023-08-14T15:25:00.026Z,100059.79
2023-08-14T15:27:46.013Z,100059.52
2023-08-14T15:30:36.052Z,100061.29
2023-08-14T15:33:22.449Z,100059.81
2023-08-14T15:36:08.688Z,100063.45
2023-08-14T15:38:55.846Z,100061.73
2023-08-14T15:41:42.609Z,100060.04
2023-08-14T15:44:28.900Z,100060.03
2023-08-14T15:47:15.234Z,100063.52
2023-08-14T15:50:01.940Z,100055.09
2023-08-14T15:52:48.785Z,100046.83
2023-08-14T15:55:34.926Z,100043.29
2023-08-14T15:58:21.194Z,100037.14
2023-08-14T16:01:07.372Z,100038.17
2023-08-14T16:03:53.690Z,100043.92
2023-08-14T16:06:40.181Z,100045.26
2023-08-14T16:09:26.356Z,100047.26
2023-08-14T16:12:13.592Z,100051.95
2023-08-14T16:15:00.686Z,100036.89
2023-08-14T16:17:47.652Z,100034.45
2023-08-14T16:20:34.143Z,100042.70
2023-08-14T16:23:20.625Z,100050.46
2023-08-14T16:26:07.160Z,100053.66
2023-08-14T16:28:53.251Z,100054.92
2023-08-14T16:31:39.483Z,100055.25
2023-08-14T16:34:26.268Z,100061.45
2023-08-14T16:37:12.978Z,100061.03
2023-08-14T16:39:59.547Z,100055.30
2023-08-14T16:42:46.350Z,100053.70
2023-08-14T16:45:32.998Z,100041.99
2023-08-14T16:48:19.592Z,100037.23
2023-08-14T16:51:05.962Z,100040.08
2023-08-14T16:53:52.724Z,100044.05
2023-08-14T16:56:39.293Z,100045.10
2023-08-14T16:59:25.833Z,100039.58
2023-08-14T17:02:12.406Z,100041.46
2023-08-14T17:04:59.954Z,100041.63
2023-08-14T17:07:46.233Z,100041.42
2023-08-14T17:10:37.045Z,100039.33
2023-08-14T17:13:23.197Z,100042.30
2023-08-14T17:16:11.480Z,100043.49
2023-08-14T17:18:57.457Z,100053.75
2023-08-14T17:21:45.941Z,100053.81
2023-08-14T17:24:33.222Z,100051.55
2023-08-14T17:27:19.731Z,100051.94
2023-08-14T17:30:07.495Z,100055.16
2023-08-14T17:32:56.151Z,100057.84
2023-08-14T17:35:46.418Z,100058.83
2023-08-14T17:38:33.819Z,100061.91
2023-08-14T17:41:20.196Z,100058.25
2023-08-14T17:44:06.706Z,100052.94
2023-08-14T17:46:52.775Z,100054.73
2023-08-14T17:49:38.829Z,100054.05
2023-08-14T17:52:26.098Z,100061.98
2023-08-14T17:55:12.279Z,100066.95
2023-08-14T17:57:58.679Z,100064.33
2023-08-14T18:00:50.271Z,100065.69
2023-08-14T18:03:37.012Z,100065.34
2023-08-14T18:06:24.586Z,100065.17
2023-08-14T18:09:10.891Z,100067.61
2023-08-14T18:11:57.167Z,100070.11
2023-08-14T18:14:43.614Z,100068.13
2023-08-14T18:17:30.066Z,100071.86
2023-08-14T18:20:16.421Z,100069.48
2023-08-14T18:23:02.762Z,100069.20
2023-08-14T18:25:54.011Z,100070.48
2023-08-14T18:28:40.597Z,100074.09
2023-08-14T18:31:27.075Z,100079.07
2023-08-14T18:34:13.446Z,100076.08
2023-08-14T18:36:59.663Z,100071.35
2023-08-14T18:39:45.722Z,100066.34
2023-08-14T18:42:31.897Z,100069.90
2023-08-14T18:45:18.092Z,100069.91
2023-08-14T18:48:05.222Z,100069.23
2023-08-14T18:50:51.641Z,100067.56
2023-08-14T18:53:38.427Z,100064.86
2023-08-14T18:56:24.830Z,100063.36
2023-08-14T18:59:12.467Z,100066.64
2023-08-14T19:01:58.808Z,100067.45
2023-08-14T19:04:45.319Z,100067.60
2023-08-14T19:07:31.704Z,100070.88
2023-08-14T19:10:18.176Z,100074.39
2023-08-14T19:13:04.432Z,100074.53
2023-08-14T19:15:50.704Z,100061.73
2023-08-14T19:18:37.121Z,100066.83
2023-08-14T19:21:23.782Z,100070.69
2023-08-14T19:24:10.114Z,100071.35
2023-08-14T19:26:56.358Z,100073.02
2023-08-14T19:29:42.486Z,100071.20
2023-08-14T19:32:28.894Z,100072.81
2023-08-14T19:35:15.483Z,100075.80
2023-08-14T19:38:01.679Z,100084.52
2023-08-14T19:40:47.977Z,100084.16
2023-08-14T19:43:33.850Z,100091.92
2023-08-14T19:46:20.193Z,100090.45
2023-08-14T19:49:06.354Z,100089.11
2023-08-14T19:51:52.228Z,100091.75
2023-08-14T19:54:38.198Z,100094.52
2023-08-14T19:57:24.458Z,100092.52
2023-08-14T20:00:11.421Z,100091.27
2023-08-14T20:02:57.846Z,100089.63
2023-08-14T20:05:49.779Z,100095.21
2023-08-14T20:08:38.393Z,100093.96
2023-08-14T20:11:24.674Z,100090.48
2023-08-14T20:14:13.025Z,100097.93
2023-08-14T20:16:59.342Z,100103.13
2023-08-14T20:19:45.384Z,100108.55
2023-08-14T20:22:31.368Z,100107.63
2023-08-14T20:25:18.964Z,100103.60
2023-08-14T20:28:06.600Z,100103.77
2023-08-14T20:30:54.184Z,100098.81
2023-08-14T20:33:40.699Z,100094.08
2023-08-14T20:36:32.564Z,100095.52
2023-08-14T20:39:18.950Z,100089.20
2023-08-14T20:42:06.665Z,100091.48
2023-08-14T20:44:53.446Z,100092.28
2023-08-14T20:47:40.077Z,100090.00
2023-08-14T20:50:26.718Z,100085.82
2023-08-14T20:53:15.378Z,100080.80
2023-08-14T20:56:03.424Z,100076.91
2023-08-14T20:58:49.867Z,100079.46
2023-08-14T21:01:36.217Z,100079.29
2023-08-14T21:04:22.953Z,100074.11
2023-08-14T21:07:09.737Z,100072.05
2023-08-14T21:09:56.208Z,100071.10
2023-08-14T21:12:42.669Z,100074.78
2023-08-14T21:15:29.498Z,100072.54
2023-08-14T21:18:16.266Z,100072.90
2023-08-14T21:21:03.079Z,100081.59
2023-08-14T21:23:49.841Z,100075.58
2023-08-14T21:26:36.959Z,100073.48
2023-08-14T21:29:23.349Z,100070.09
2023-08-14T21:32:09.607Z,100065.37
2023-08-14T21:34:56.085Z,100065.86
2023-08-14T21:37:42.385Z,100060.98
2023-08-14T21:40:28.561Z,100058.73
2023-08-14T21:43:14.841Z,100059.23
2023-08-14T21:46:02.360Z,100057.50
2023-08-14T21:48:48.903Z,100055.52
2023-08-14T21:51:35.010Z,100056.07
2023-08-14T21:54:21.567Z,100055.81
2023-08-14T21:57:07.638Z,100056.48
2023-08-14T21:59:53.857Z,100057.16
2023-08-14T22:02:40.241Z,100054.21
2023-08-14T22:05:26.487Z,100053.43
2023-08-14T22:08:12.887Z,100053.88
2023-08-14T22:11:01.445Z,100058.66
2023-08-14T22:13:47.455Z,100056.07
2023-08-14T22:16:33.622Z,100058.23
2023-08-14T22:19:19.928Z,100055.23
2023-08-14T22:22:05.729Z,100058.15
2023-08-14T22:24:52.184Z,100056.81
2023-08-14T22:27:40.815Z,100057.84
2023-08-14T22:30:26.994Z,100060.45
2023-08-14T22:33:13.306Z,100064.48
2023-08-14T22:35:59.999Z,100062.52
2023-08-14T22:38:46.440Z,100061.20
2023-08-14T22:41:32.834Z,100060.05
2023-08-14T22:44:19.124Z,100058.70
2023-08-14T22:47:05.152Z,100060.05
2023-08-14T22:49:51.605Z,100060.65
2023-08-14T22:52:37.781Z,100061.55
2023-08-14T22:55:24.042Z,100056.38
2023-08-14T22:58:10.658Z,100052.95
2023-08-14T23:00:57.217Z,100056.91
2023-08-14T23:03:43.380Z,100055.61
2023-08-14T23:06:29.870Z,100057.52
2023-08-14T23:09:15.913Z,100054.46
2023-08-14T23:12:02.168Z,100053.05
2023-08-14T23:14:48.709Z,100049.04
2023-08-14T23:17:35.192Z,100053.33
2023-08-14T23:20:21.530Z,100050.84
2023-08-14T23:23:07.826Z,100051.34
2023-08-14T23:25:53.968Z,100056.77
2023-08-14T23:28:40.568Z,100060.59
2023-08-14T23:31:26.686Z,100059.23
2023-08-14T23:34:12.644Z,100065.98
2023-08-14T23:36:58.767Z,100065.55
2023-08-14T23:39:45.336Z,100064.14
2023-08-14T23:42:31.719Z,100070.63
2023-08-14T23:45:18.426Z,100074.11
2023-08-14T23:48:08.278Z,100074.71
2023-08-14T23:50:54.751Z,100077.66
2023-08-14T23:53:41.158Z,100076.02
2023-08-14T23:56:27.445Z,100076.48
2023-08-14T23:59:13.643Z,100078.30
